Aviation Digital Data Service (ADDS)

Output produced by METARs form (0442 UTC 19 August 2019)
found at http://www.aviationweather.gov/metar/data/
 
METAR text: FAKM 190400Z 33010KT CAVOK 15/M03 Q1023
Conditions at: FAKM (KIMBERLEY/BJ VOR, ZA) observed 0400 UTC 19 August 2019
Temperature: 15.0°C (59°F)
Dewpoint: -3.0°C (27°F) [RH = 29%]
Pressure (altimeter): 30.21 inches Hg (1023.0 mb)
Winds: from the NNW (330 degrees) at 12 MPH (10 knots; 5.1 m/s)
Visibility: 6 or more miles (10+ km)
Ceiling: ceiling and visibility are OK
Clouds: unknown
Weather: no significant weather observed at this time

METAR text: FAKM 190300Z 34010KT CAVOK 13/M03 Q1023
Conditions at: FAKM (KIMBERLEY/BJ VOR, ZA) observed 0300 UTC 19 August 2019
Temperature: 13.0°C (55°F)
Dewpoint: -3.0°C (27°F) [RH = 33%]
Pressure (altimeter): 30.21 inches Hg (1023.0 mb)
Winds: from the NNW (340 degrees) at 12 MPH (10 knots; 5.1 m/s)
Visibility: 6 or more miles (10+ km)
Ceiling: ceiling and visibility are OK
Clouds: unknown
Weather: no significant weather observed at this time

METAR text: FAKM 190200Z AUTO 34009KT //// // ////// 14/M03 Q1022
Conditions at: FAKM (KIMBERLEY/BJ VOR, ZA) observed 0200 UTC 19 August 2019
Temperature: 14.0°C (57°F)
Dewpoint: -3.0°C (27°F) [RH = 31%]
Pressure (altimeter): 30.18 inches Hg (1022.0 mb)
Winds: from the NNW (340 degrees) at 10 MPH (9 knots; 4.6 m/s)
Visibility: missing
Ceiling: unknown
Clouds: missing
Weather: no significant weather observed at this time

METAR text: FAKM 190100Z AUTO 33007KT //// // ////// 14/M03 Q1022
Conditions at: FAKM (KIMBERLEY/BJ VOR, ZA) observed 0100 UTC 19 August 2019
Temperature: 14.0°C (57°F)
Dewpoint: -3.0°C (27°F) [RH = 31%]
Pressure (altimeter): 30.18 inches Hg (1022.0 mb)
Winds: from the NNW (330 degrees) at 8 MPH (7 knots; 3.6 m/s)
Visibility: missing
Ceiling: unknown
Clouds: missing
Weather: no significant weather observed at this time

METAR text: FAKM 190000Z AUTO 31007KT //// // ////// 15/M03 Q1023
Conditions at: FAKM (KIMBERLEY/BJ VOR, ZA) observed 0000 UTC 19 August 2019
Temperature: 15.0°C (59°F)
Dewpoint: -3.0°C (27°F) [RH = 29%]
Pressure (altimeter): 30.21 inches Hg (1023.0 mb)
Winds: from the NW (310 degrees) at 8 MPH (7 knots; 3.6 m/s)
Visibility: missing
Ceiling: unknown
Clouds: missing
Weather: no significant weather observed at this time

METAR text: FAKM 182300Z AUTO 36004KT //// // ////// 14/M03 Q1023
Conditions at: FAKM (KIMBERLEY/BJ VOR, ZA) observed 2300 UTC 18 August 2019
Temperature: 14.0°C (57°F)
Dewpoint: -3.0°C (27°F) [RH = 31%]
Pressure (altimeter): 30.21 inches Hg (1023.0 mb)
Winds: from the N (360 degrees) at 5 MPH (4 knots; 2.1 m/s)
Visibility: missing
Ceiling: unknown
Clouds: missing
Weather: no significant weather observed at this time

METAR text: FAKM 182200Z AUTO 35005KT //// // ////// 14/M03 Q1023
Conditions at: FAKM (KIMBERLEY/BJ VOR, ZA) observed 2200 UTC 18 August 2019
Temperature: 14.0°C (57°F)
Dewpoint: -3.0°C (27°F) [RH = 31%]
Pressure (altimeter): 30.21 inches Hg (1023.0 mb)
Winds: from the N (350 degrees) at 6 MPH (5 knots; 2.6 m/s)
Visibility: missing
Ceiling: unknown
Clouds: missing
Weather: no significant weather observed at this time

METAR text: FAKM 182100Z AUTO 32007KT //// // ////// 15/M02 Q1023
Conditions at: FAKM (KIMBERLEY/BJ VOR, ZA) observed 2100 UTC 18 August 2019
Temperature: 15.0°C (59°F)
Dewpoint: -2.0°C (28°F) [RH = 31%]
Pressure (altimeter): 30.21 inches Hg (1023.0 mb)
Winds: from the NW (320 degrees) at 8 MPH (7 knots; 3.6 m/s)
Visibility: missing
Ceiling: unknown
Clouds: missing
Weather: no significant weather observed at this time

METAR text: FAKM 182000Z AUTO 31006KT //// // ////// 14/M03 Q1023
Conditions at: FAKM (KIMBERLEY/BJ VOR, ZA) observed 2000 UTC 18 August 2019
Temperature: 14.0°C (57°F)
Dewpoint: -3.0°C (27°F) [RH = 31%]
Pressure (altimeter): 30.21 inches Hg (1023.0 mb)
Winds: from the NW (310 degrees) at 7 MPH (6 knots; 3.1 m/s)
Visibility: missing
Ceiling: unknown
Clouds: missing
Weather: no significant weather observed at this time

METAR text: FAKM 181900Z 31007KT CAVOK 17/M03 Q1023
Conditions at: FAKM (KIMBERLEY/BJ VOR, ZA) observed 1900 UTC 18 August 2019
Temperature: 17.0°C (63°F)
Dewpoint: -3.0°C (27°F) [RH = 25%]
Pressure (altimeter): 30.21 inches Hg (1023.0 mb)
Winds: from the NW (310 degrees) at 8 MPH (7 knots; 3.6 m/s)
Visibility: 6 or more miles (10+ km)
Ceiling: ceiling and visibility are OK
Clouds: unknown
Weather: no significant weather observed at this time

METAR text: FAKM 181800Z 33006KT CAVOK 16/M03 Q1023
Conditions at: FAKM (KIMBERLEY/BJ VOR, ZA) observed 1800 UTC 18 August 2019
Temperature: 16.0°C (61°F)
Dewpoint: -3.0°C (27°F) [RH = 27%]
Pressure (altimeter): 30.21 inches Hg (1023.0 mb)
Winds: from the NNW (330 degrees) at 7 MPH (6 knots; 3.1 m/s)
Visibility: 6 or more miles (10+ km)
Ceiling: ceiling and visibility are OK
Clouds: unknown
Weather: no significant weather observed at this time

METAR text: FAKM 181700Z 29006KT CAVOK 19/M03 Q1022
Conditions at: FAKM (KIMBERLEY/BJ VOR, ZA) observed 1700 UTC 18 August 2019
Temperature: 19.0°C (66°F)
Dewpoint: -3.0°C (27°F) [RH = 22%]
Pressure (altimeter): 30.18 inches Hg (1022.0 mb)
Winds: from the WNW (290 degrees) at 7 MPH (6 knots; 3.1 m/s)
Visibility: 6 or more miles (10+ km)
Ceiling: ceiling and visibility are OK
Clouds: unknown
Weather: no significant weather observed at this time

METAR text: FAKM 181600Z 29008KT CAVOK 24/M03 Q1022
Conditions at: FAKM (KIMBERLEY/BJ VOR, ZA) observed 1600 UTC 18 August 2019
Temperature: 24.0°C (75°F)
Dewpoint: -3.0°C (27°F) [RH = 16%]
Pressure (altimeter): 30.18 inches Hg (1022.0 mb)
Winds: from the WNW (290 degrees) at 9 MPH (8 knots; 4.1 m/s)
Visibility: 6 or more miles (10+ km)
Ceiling: ceiling and visibility are OK
Clouds: unknown
Weather: no significant weather observed at this time

METAR text: FAKM 181500Z 30015KT CAVOK 27/M02 Q1022
Conditions at: FAKM (KIMBERLEY/BJ VOR, ZA) observed 1500 UTC 18 August 2019
Temperature: 27.0°C (81°F)
Dewpoint: -2.0°C (28°F) [RH = 15%]
Pressure (altimeter): 30.18 inches Hg (1022.0 mb)
Winds: from the WNW (300 degrees) at 17 MPH (15 knots; 7.7 m/s)
Visibility: 6 or more miles (10+ km)
Ceiling: ceiling and visibility are OK
Clouds: unknown
Weather: no significant weather observed at this time

METAR text: FAKM 181400Z 31014KT CAVOK 28/M02 Q1021
Conditions at: FAKM (KIMBERLEY/BJ VOR, ZA) observed 1400 UTC 18 August 2019
Temperature: 28.0°C (82°F)
Dewpoint: -2.0°C (28°F) [RH = 14%]
Pressure (altimeter): 30.15 inches Hg (1021.0 mb)
Winds: from the NW (310 degrees) at 16 MPH (14 knots; 7.2 m/s)
Visibility: 6 or more miles (10+ km)
Ceiling: ceiling and visibility are OK
Clouds: unknown
Weather: no significant weather observed at this time

METAR text: FAKM 181300Z 31015KT CAVOK 29/M02 Q1022
Conditions at: FAKM (KIMBERLEY/BJ VOR, ZA) observed 1300 UTC 18 August 2019
Temperature: 29.0°C (84°F)
Dewpoint: -2.0°C (28°F) [RH = 13%]
Pressure (altimeter): 30.18 inches Hg (1022.0 mb)
Winds: from the NW (310 degrees) at 17 MPH (15 knots; 7.7 m/s)
Visibility: 6 or more miles (10+ km)
Ceiling: ceiling and visibility are OK
Clouds: unknown
Weather: no significant weather observed at this time

METAR text: FAKM 181200Z 34012KT CAVOK 28/M01 Q1023
Conditions at: FAKM (KIMBERLEY/BJ VOR, ZA) observed 1200 UTC 18 August 2019
Temperature: 28.0°C (82°F)
Dewpoint: -1.0°C (30°F) [RH = 15%]
Pressure (altimeter): 30.21 inches Hg (1023.0 mb)
Winds: from the NNW (340 degrees) at 14 MPH (12 knots; 6.2 m/s)
Visibility: 6 or more miles (10+ km)
Ceiling: ceiling and visibility are OK
Clouds: unknown
Weather: no significant weather observed at this time

METAR text: FAKM 181100Z 32013KT CAVOK 27/M02 Q1024
Conditions at: FAKM (KIMBERLEY/BJ VOR, ZA) observed 1100 UTC 18 August 2019
Temperature: 27.0°C (81°F)
Dewpoint: -2.0°C (28°F) [RH = 15%]
Pressure (altimeter): 30.24 inches Hg (1024.0 mb)
Winds: from the NW (320 degrees) at 15 MPH (13 knots; 6.7 m/s)
Visibility: 6 or more miles (10+ km)
Ceiling: ceiling and visibility are OK
Clouds: unknown
Weather: no significant weather observed at this time

METAR text: FAKM 181000Z 34011KT CAVOK 25/M00 Q1025
Conditions at: FAKM (KIMBERLEY/BJ VOR, ZA) observed 1000 UTC 18 August 2019
Temperature: 25.0°C (77°F)
Dewpoint: 0.0°C (32°F) [RH = 19%]
Pressure (altimeter): 30.27 inches Hg (1025.0 mb)
Winds: from the NNW (340 degrees) at 13 MPH (11 knots; 5.7 m/s)
Visibility: 6 or more miles (10+ km)
Ceiling: ceiling and visibility are OK
Clouds: unknown
Weather: no significant weather observed at this time

METAR text: FAKM 180950Z 34011KT CAVOK 25/M00 Q1025
Conditions at: FAKM (KIMBERLEY/BJ VOR, ZA) observed 0950 UTC 18 August 2019
Temperature: 25.0°C (77°F)
Dewpoint: 0.0°C (32°F) [RH = 19%]
Pressure (altimeter): 30.27 inches Hg (1025.0 mb)
Winds: from the NNW (340 degrees) at 13 MPH (11 knots; 5.7 m/s)
Visibility: 6 or more miles (10+ km)
Ceiling: ceiling and visibility are OK
Clouds: unknown
Weather: no significant weather observed at this time

METAR text: FAKM 180900Z 35012KT CAVOK 23/00 Q1026
Conditions at: FAKM (KIMBERLEY/BJ VOR, ZA) observed 0900 UTC 18 August 2019
Temperature: 23.0°C (73°F)
Dewpoint: 0.0°C (32°F) [RH = 22%]
Pressure (altimeter): 30.30 inches Hg (1026.0 mb)
Winds: from the N (350 degrees) at 14 MPH (12 knots; 6.2 m/s)
Visibility: 6 or more miles (10+ km)
Ceiling: ceiling and visibility are OK
Clouds: unknown
Weather: no significant weather observed at this time

METAR text: FAKM 180845Z 35012KT CAVOK 22/00 Q1026
Conditions at: FAKM (KIMBERLEY/BJ VOR, ZA) observed 0845 UTC 18 August 2019
Temperature: 22.0°C (72°F)
Dewpoint: 0.0°C (32°F) [RH = 23%]
Pressure (altimeter): 30.30 inches Hg (1026.0 mb)
Winds: from the N (350 degrees) at 14 MPH (12 knots; 6.2 m/s)
Visibility: 6 or more miles (10+ km)
Ceiling: ceiling and visibility are OK
Clouds: unknown
Weather: no significant weather observed at this time

METAR text: FAKM 180800Z 35012KT CAVOK 20/02 Q1026
Conditions at: FAKM (KIMBERLEY/BJ VOR, ZA) observed 0800 UTC 18 August 2019
Temperature: 20.0°C (68°F)
Dewpoint: 2.0°C (36°F) [RH = 30%]
Pressure (altimeter): 30.30 inches Hg (1026.0 mb)
Winds: from the N (350 degrees) at 14 MPH (12 knots; 6.2 m/s)
Visibility: 6 or more miles (10+ km)
Ceiling: ceiling and visibility are OK
Clouds: unknown
Weather: no significant weather observed at this time

METAR text: FAKM 180739Z AUTO 36012KT //// // ////// 19/03 Q1026
Conditions at: FAKM (KIMBERLEY/BJ VOR, ZA) observed 0739 UTC 18 August 2019
Temperature: 19.0°C (66°F)
Dewpoint: 3.0°C (37°F) [RH = 34%]
Pressure (altimeter): 30.30 inches Hg (1026.0 mb)
Winds: from the N (360 degrees) at 14 MPH (12 knots; 6.2 m/s)
Visibility: missing
Ceiling: unknown
Clouds: missing
Weather: no significant weather observed at this time

METAR text: FAKM 180700Z 01009KT CAVOK 17/04 Q1026
Conditions at: FAKM (KIMBERLEY/BJ VOR, ZA) observed 0700 UTC 18 August 2019
Temperature: 17.0°C (63°F)
Dewpoint: 4.0°C (39°F) [RH = 42%]
Pressure (altimeter): 30.30 inches Hg (1026.0 mb)
Winds: from the N (10 degrees) at 10 MPH (9 knots; 4.6 m/s)
Visibility: 6 or more miles (10+ km)
Ceiling: ceiling and visibility are OK
Clouds: unknown
Weather: no significant weather observed at this time

METAR text: FAKM 180636Z 01011KT CAVOK 15/04 Q1026
Conditions at: FAKM (KIMBERLEY/BJ VOR, ZA) observed 0636 UTC 18 August 2019
Temperature: 15.0°C (59°F)
Dewpoint: 4.0°C (39°F) [RH = 48%]
Pressure (altimeter): 30.30 inches Hg (1026.0 mb)
Winds: from the N (10 degrees) at 13 MPH (11 knots; 5.7 m/s)
Visibility: 6 or more miles (10+ km)
Ceiling: ceiling and visibility are OK
Clouds: unknown
Weather: no significant weather observed at this time

METAR text: FAKM 180600Z 36009KT CAVOK 13/04 Q1025
Conditions at: FAKM (KIMBERLEY/BJ VOR, ZA) observed 0600 UTC 18 August 2019
Temperature: 13.0°C (55°F)
Dewpoint: 4.0°C (39°F) [RH = 54%]
Pressure (altimeter): 30.27 inches Hg (1025.0 mb)
Winds: from the N (360 degrees) at 10 MPH (9 knots; 4.6 m/s)
Visibility: 6 or more miles (10+ km)
Ceiling: ceiling and visibility are OK
Clouds: unknown
Weather: no significant weather observed at this time

METAR text: FAKM 180500Z 02007KT CAVOK 11/03 Q1024
Conditions at: FAKM (KIMBERLEY/BJ VOR, ZA) observed 0500 UTC 18 August 2019
Temperature: 11.0°C (52°F)
Dewpoint: 3.0°C (37°F) [RH = 58%]
Pressure (altimeter): 30.24 inches Hg (1024.0 mb)
Winds: from the NNE (20 degrees) at 8 MPH (7 knots; 3.6 m/s)
Visibility: 6 or more miles (10+ km)
Ceiling: ceiling and visibility are OK
Clouds: unknown
Weather: no significant weather observed at this time

METAR text: FAKM 180400Z 02009KT CAVOK 12/03 Q1024
Conditions at: FAKM (KIMBERLEY/BJ VOR, ZA) observed 0400 UTC 18 August 2019
Temperature: 12.0°C (54°F)
Dewpoint: 3.0°C (37°F) [RH = 54%]
Pressure (altimeter): 30.24 inches Hg (1024.0 mb)
Winds: from the NNE (20 degrees) at 10 MPH (9 knots; 4.6 m/s)
Visibility: 6 or more miles (10+ km)
Ceiling: ceiling and visibility are OK
Clouds: unknown
Weather: no significant weather observed at this time

METAR text: FAKM 180300Z 02011KT CAVOK 13/01 Q1024
Conditions at: FAKM (KIMBERLEY/BJ VOR, ZA) observed 0300 UTC 18 August 2019
Temperature: 13.0°C (55°F)
Dewpoint: 1.0°C (34°F) [RH = 44%]
Pressure (altimeter): 30.24 inches Hg (1024.0 mb)
Winds: from the NNE (20 degrees) at 13 MPH (11 knots; 5.7 m/s)
Visibility: 6 or more miles (10+ km)
Ceiling: ceiling and visibility are OK
Clouds: unknown
Weather: no significant weather observed at this time

METAR text: FAKM 180200Z AUTO 36006KT //// // ////// 12/M03 Q1023
Conditions at: FAKM (KIMBERLEY/BJ VOR, ZA) observed 0200 UTC 18 August 2019
Temperature: 12.0°C (54°F)
Dewpoint: -3.0°C (27°F) [RH = 35%]
Pressure (altimeter): 30.21 inches Hg (1023.0 mb)
Winds: from the N (360 degrees) at 7 MPH (6 knots; 3.1 m/s)
Visibility: missing
Ceiling: unknown
Clouds: missing
Weather: no significant weather observed at this time

METAR text: FAKM 180100Z AUTO 36006KT //// // ////// 14/M03 Q1024
Conditions at: FAKM (KIMBERLEY/BJ VOR, ZA) observed 0100 UTC 18 August 2019
Temperature: 14.0°C (57°F)
Dewpoint: -3.0°C (27°F) [RH = 31%]
Pressure (altimeter): 30.24 inches Hg (1024.0 mb)
Winds: from the N (360 degrees) at 7 MPH (6 knots; 3.1 m/s)
Visibility: missing
Ceiling: unknown
Clouds: missing
Weather: no significant weather observed at this time

METAR text: FAKM 180000Z AUTO 01007KT //// // ////// 15/M03 Q1024
Conditions at: FAKM (KIMBERLEY/BJ VOR, ZA) observed 0000 UTC 18 August 2019
Temperature: 15.0°C (59°F)
Dewpoint: -3.0°C (27°F) [RH = 29%]
Pressure (altimeter): 30.24 inches Hg (1024.0 mb)
Winds: from the N (10 degrees) at 8 MPH (7 knots; 3.6 m/s)
Visibility: missing
Ceiling: unknown
Clouds: missing
Weather: no significant weather observed at this time

METAR text: FAKM 172300Z AUTO 02007KT //// // ////// 16/M03 Q1024
Conditions at: FAKM (KIMBERLEY/BJ VOR, ZA) observed 2300 UTC 17 August 2019
Temperature: 16.0°C (61°F)
Dewpoint: -3.0°C (27°F) [RH = 27%]
Pressure (altimeter): 30.24 inches Hg (1024.0 mb)
Winds: from the NNE (20 degrees) at 8 MPH (7 knots; 3.6 m/s)
Visibility: missing
Ceiling: unknown
Clouds: missing
Weather: no significant weather observed at this time

METAR text: FAKM 172200Z AUTO 02005KT //// // ////// 13/M03 Q1024
Conditions at: FAKM (KIMBERLEY/BJ VOR, ZA) observed 2200 UTC 17 August 2019
Temperature: 13.0°C (55°F)
Dewpoint: -3.0°C (27°F) [RH = 33%]
Pressure (altimeter): 30.24 inches Hg (1024.0 mb)
Winds: from the NNE (20 degrees) at 6 MPH (5 knots; 2.6 m/s)
Visibility: missing
Ceiling: unknown
Clouds: missing
Weather: no significant weather observed at this time

METAR text: FAKM 172100Z AUTO 04005KT //// // ////// 15/M03 Q1024
Conditions at: FAKM (KIMBERLEY/BJ VOR, ZA) observed 2100 UTC 17 August 2019
Temperature: 15.0°C (59°F)
Dewpoint: -3.0°C (27°F) [RH = 29%]
Pressure (altimeter): 30.24 inches Hg (1024.0 mb)
Winds: from the NE (40 degrees) at 6 MPH (5 knots; 2.6 m/s)
Visibility: missing
Ceiling: unknown
Clouds: missing
Weather: no significant weather observed at this time

METAR text: FAKM 172000Z AUTO 05005KT //// // ////// 13/M03 Q1024
Conditions at: FAKM (KIMBERLEY/BJ VOR, ZA) observed 2000 UTC 17 August 2019
Temperature: 13.0°C (55°F)
Dewpoint: -3.0°C (27°F) [RH = 33%]
Pressure (altimeter): 30.24 inches Hg (1024.0 mb)
Winds: from the NE (50 degrees) at 6 MPH (5 knots; 2.6 m/s)
Visibility: missing
Ceiling: unknown
Clouds: missing
Weather: no significant weather observed at this time

METAR text: FAKM 171900Z AUTO 03002KT //// // ////// 13/M03 Q1024
Conditions at: FAKM (KIMBERLEY/BJ VOR, ZA) observed 1900 UTC 17 August 2019
Temperature: 13.0°C (55°F)
Dewpoint: -3.0°C (27°F) [RH = 33%]
Pressure (altimeter): 30.24 inches Hg (1024.0 mb)
Winds: from the NNE (30 degrees) at 2 MPH (2 knots; 1.0 m/s)
Visibility: missing
Ceiling: unknown
Clouds: missing
Weather: no significant weather observed at this time

METAR text: FAKM 171800Z 13002KT CAVOK 17/M03 Q1024
Conditions at: FAKM (KIMBERLEY/BJ VOR, ZA) observed 1800 UTC 17 August 2019
Temperature: 17.0°C (63°F)
Dewpoint: -3.0°C (27°F) [RH = 25%]
Pressure (altimeter): 30.24 inches Hg (1024.0 mb)
Winds: from the SE (130 degrees) at 2 MPH (2 knots; 1.0 m/s)
Visibility: 6 or more miles (10+ km)
Ceiling: ceiling and visibility are OK
Clouds: unknown
Weather: no significant weather observed at this time

METAR text: FAKM 171700Z 08003KT CAVOK 19/M02 Q1024
Conditions at: FAKM (KIMBERLEY/BJ VOR, ZA) observed 1700 UTC 17 August 2019
Temperature: 19.0°C (66°F)
Dewpoint: -2.0°C (28°F) [RH = 24%]
Pressure (altimeter): 30.24 inches Hg (1024.0 mb)
Winds: from the E (80 degrees) at 3 MPH (3 knots; 1.5 m/s)
Visibility: 6 or more miles (10+ km)
Ceiling: ceiling and visibility are OK
Clouds: unknown
Weather: no significant weather observed at this time

Forecast for: FAKM (KIMBERLEY/BJ VOR, ZA)
Text: TAF FAKM 190300Z 1904/1915 34010KT CAVOK TX26/1912Z TN11/1905Z
Forecast period: 0400 to 1100 UTC 19 August 2019
Forecast type: FROM: standard forecast or significant change
Winds: from the NNW (340 degrees) at 12 MPH (10 knots; 5.1 m/s)
Visibility: 6 or more miles 10+ km)
Ceiling: unknown
Clouds: missing
Weather: no significant weather forecast for this period
Text: BECMG 1911/1913 25010KT
Forecast period: 1100 to 1500 UTC 19 August 2019
Forecast type: BECOMING: Conditions expected to become as follows by 1300 UTC 19 August 2019
Winds: from the WSW (250 degrees) at 12 MPH (10 knots; 5.1 m/s)
Visibility: 6 or more miles 10+ km)
Ceiling: unknown
Clouds: missing
Weather: no significant weather forecast for this period